sensor_id;sensor_type;location;lat;lon;timestamp;P1;durP1;ratioP1;P2;durP2;ratioP2
11131;SDS011;5620;53.570;9.718;2023-01-23T00:01:10;4.65;;;0.85;;
11131;SDS011;5620;53.570;9.718;2023-01-23T00:03:38;0.88;;;0.88;;
11131;SDS011;5620;53.570;9.718;2023-01-23T00:06:08;2.38;;;1.40;;
11131;SDS011;5620;53.570;9.718;2023-01-23T00:08:37;2.05;;;1.95;;
11131;SDS011;5620;53.570;9.718;2023-01-23T00:11:05;2.70;;;1.07;;
11131;SDS011;5620;53.570;9.718;2023-01-23T00:13:34;2.85;;;1.58;;
11131;SDS011;5620;53.570;9.718;2023-01-23T00:16:08;3.88;;;1.38;;
11131;SDS011;5620;53.570;9.718;2023-01-23T00:18:35;1.58;;;1.48;;
11131;SDS011;5620;53.570;9.718;2023-01-23T00:21:02;2.55;;;1.40;;
11131;SDS011;5620;53.570;9.718;2023-01-23T00:23:32;7.23;;;2.10;;
11131;SDS011;5620;53.570;9.718;2023-01-23T00:26:02;1.98;;;1.20;;
11131;SDS011;5620;53.570;9.718;2023-01-23T00:28:32;2.03;;;1.52;;
11131;SDS011;5620;53.570;9.718;2023-01-23T00:31:05;1.33;;;1.08;;
11131;SDS011;5620;53.570;9.718;2023-01-23T00:33:34;1.60;;;1.20;;
11131;SDS011;5620;53.570;9.718;2023-01-23T00:36:01;1.47;;;1.37;;
11131;SDS011;5620;53.570;9.718;2023-01-23T00:38:29;2.42;;;1.20;;
11131;SDS011;5620;53.570;9.718;2023-01-23T00:40:57;2.72;;;1.27;;
11131;SDS011;5620;53.570;9.718;2023-01-23T00:43:24;2.42;;;1.67;;
11131;SDS011;5620;53.570;9.718;2023-01-23T00:45:51;2.67;;;1.35;;
11131;SDS011;5620;53.570;9.718;2023-01-23T00:48:19;7.80;;;1.20;;
11131;SDS011;5620;53.570;9.718;2023-01-23T00:50:47;1.13;;;1.02;;
11131;SDS011;5620;53.570;9.718;2023-01-23T00:53:14;2.55;;;1.20;;
11131;SDS011;5620;53.570;9.718;2023-01-23T00:55:41;3.72;;;1.33;;
11131;SDS011;5620;53.570;9.718;2023-01-23T00:58:08;3.25;;;1.23;;
11131;SDS011;5620;53.570;9.718;2023-01-23T01:00:35;1.00;;;0.80;;
11131;SDS011;5620;53.570;9.718;2023-01-23T01:03:03;1.58;;;1.15;;
11131;SDS011;5620;53.570;9.718;2023-01-23T01:05:30;2.35;;;1.00;;
11131;SDS011;5620;53.570;9.718;2023-01-23T01:07:59;2.87;;;1.27;;
11131;SDS011;5620;53.570;9.718;2023-01-23T01:10:27;3.65;;;1.40;;
11131;SDS011;5620;53.570;9.718;2023-01-23T01:12:54;1.13;;;0.73;;
11131;SDS011;5620;53.570;9.718;2023-01-23T01:15:22;1.02;;;0.80;;
11131;SDS011;5620;53.570;9.718;2023-01-23T01:17:50;1.13;;;1.03;;
11131;SDS011;5620;53.570;9.718;2023-01-23T01:20:17;1.65;;;0.85;;
11131;SDS011;5620;53.570;9.718;2023-01-23T01:22:46;1.50;;;1.23;;
11131;SDS011;5620;53.570;9.718;2023-01-23T01:25:15;1.45;;;1.23;;
11131;SDS011;5620;53.570;9.718;2023-01-23T01:27:42;3.17;;;0.98;;
11131;SDS011;5620;53.570;9.718;2023-01-23T01:30:10;0.90;;;0.90;;
11131;SDS011;5620;53.570;9.718;2023-01-23T01:32:38;2.20;;;1.35;;
11131;SDS011;5620;53.570;9.718;2023-01-23T01:35:06;0.63;;;0.63;;
11131;SDS011;5620;53.570;9.718;2023-01-23T01:37:36;1.40;;;0.70;;
11131;SDS011;5620;53.570;9.718;2023-01-23T01:40:06;2.35;;;1.27;;
11131;SDS011;5620;53.570;9.718;2023-01-23T01:42:56;1.57;;;1.10;;
11131;SDS011;5620;53.570;9.718;2023-01-23T01:48:30;1.77;;;0.70;;
11131;SDS011;5620;53.570;9.718;2023-01-23T01:51:23;0.70;;;0.63;;
11131;SDS011;5620;53.570;9.718;2023-01-23T02:00:06;2.13;;;0.82;;
11131;SDS011;5620;53.570;9.718;2023-01-23T02:02:51;1.02;;;1.00;;
11131;SDS011;5620;53.570;9.718;2023-01-23T02:05:23;3.55;;;1.35;;
11131;SDS011;5620;53.570;9.718;2023-01-23T02:07:53;2.03;;;1.05;;
11131;SDS011;5620;53.570;9.718;2023-01-23T02:10:39;1.80;;;1.10;;
11131;SDS011;5620;53.570;9.718;2023-01-23T02:16:08;1.70;;;1.10;;
11131;SDS011;5620;53.570;9.718;2023-01-23T02:18:41;0.98;;;0.93;;
11131;SDS011;5620;53.570;9.718;2023-01-23T02:21:10;1.23;;;0.90;;
11131;SDS011;5620;53.570;9.718;2023-01-23T02:26:47;1.10;;;1.00;;
11131;SDS011;5620;53.570;9.718;2023-01-23T02:29:22;1.60;;;1.02;;
11131;SDS011;5620;53.570;9.718;2023-01-23T02:31:52;2.67;;;0.82;;
11131;SDS011;5620;53.570;9.718;2023-01-23T02:34:19;2.37;;;1.40;;
11131;SDS011;5620;53.570;9.718;2023-01-23T02:36:47;1.23;;;0.98;;
11131;SDS011;5620;53.570;9.718;2023-01-23T02:39:17;2.03;;;1.02;;
11131;SDS011;5620;53.570;9.718;2023-01-23T02:41:46;3.33;;;1.58;;
11131;SDS011;5620;53.570;9.718;2023-01-23T02:44:16;2.50;;;1.17;;
11131;SDS011;5620;53.570;9.718;2023-01-23T02:47:03;9.65;;;6.30;;
11131;SDS011;5620;53.570;9.718;2023-01-23T02:49:32;5.53;;;1.92;;
11131;SDS011;5620;53.570;9.718;2023-01-23T02:52:01;1.90;;;1.80;;
11131;SDS011;5620;53.570;9.718;2023-01-23T02:54:28;1.40;;;1.30;;
11131;SDS011;5620;53.570;9.718;2023-01-23T02:56:56;1.10;;;1.00;;
11131;SDS011;5620;53.570;9.718;2023-01-23T02:59:23;1.60;;;1.50;;
11131;SDS011;5620;53.570;9.718;2023-01-23T03:01:50;1.83;;;1.50;;
11131;SDS011;5620;53.570;9.718;2023-01-23T03:04:17;1.58;;;1.33;;
11131;SDS011;5620;53.570;9.718;2023-01-23T03:06:45;1.50;;;1.40;;
11131;SDS011;5620;53.570;9.718;2023-01-23T03:09:12;1.50;;;1.40;;
11131;SDS011;5620;53.570;9.718;2023-01-23T03:11:43;3.85;;;1.65;;
11131;SDS011;5620;53.570;9.718;2023-01-23T03:14:14;2.17;;;1.55;;
11131;SDS011;5620;53.570;9.718;2023-01-23T03:16:41;3.50;;;1.50;;
11131;SDS011;5620;53.570;9.718;2023-01-23T03:19:08;1.80;;;1.20;;
11131;SDS011;5620;53.570;9.718;2023-01-23T03:21:37;1.65;;;1.55;;
11131;SDS011;5620;53.570;9.718;2023-01-23T03:24:05;3.33;;;1.48;;
11131;SDS011;5620;53.570;9.718;2023-01-23T03:26:36;2.30;;;2.10;;
11131;SDS011;5620;53.570;9.718;2023-01-23T03:29:13;2.47;;;1.37;;
11131;SDS011;5620;53.570;9.718;2023-01-23T03:31:49;1.48;;;1.23;;
11131;SDS011;5620;53.570;9.718;2023-01-23T03:34:18;2.95;;;2.03;;
11131;SDS011;5620;53.570;9.718;2023-01-23T03:36:45;1.42;;;1.33;;
11131;SDS011;5620;53.570;9.718;2023-01-23T03:39:12;2.25;;;1.80;;
11131;SDS011;5620;53.570;9.718;2023-01-23T03:41:39;2.87;;;1.10;;
11131;SDS011;5620;53.570;9.718;2023-01-23T03:44:07;1.55;;;1.45;;
11131;SDS011;5620;53.570;9.718;2023-01-23T03:46:34;2.50;;;2.13;;
11131;SDS011;5620;53.570;9.718;2023-01-23T03:49:02;1.90;;;1.80;;
11131;SDS011;5620;53.570;9.718;2023-01-23T03:51:30;1.88;;;1.77;;
11131;SDS011;5620;53.570;9.718;2023-01-23T03:53:57;1.67;;;1.57;;
11131;SDS011;5620;53.570;9.718;2023-01-23T03:56:22;2.30;;;2.10;;
11131;SDS011;5620;53.570;9.718;2023-01-23T03:58:50;2.50;;;2.30;;
11131;SDS011;5620;53.570;9.718;2023-01-23T04:01:18;3.40;;;1.58;;
11131;SDS011;5620;53.570;9.718;2023-01-23T04:03:45;5.00;;;1.85;;
11131;SDS011;5620;53.570;9.718;2023-01-23T04:06:12;2.53;;;2.33;;
11131;SDS011;5620;53.570;9.718;2023-01-23T04:08:38;1.80;;;1.70;;
11131;SDS011;5620;53.570;9.718;2023-01-23T04:11:07;2.17;;;2.07;;
11131;SDS011;5620;53.570;9.718;2023-01-23T04:13:35;2.08;;;1.98;;
11131;SDS011;5620;53.570;9.718;2023-01-23T04:16:01;2.33;;;2.22;;
11131;SDS011;5620;53.570;9.718;2023-01-23T04:18:29;2.47;;;2.25;;
11131;SDS011;5620;53.570;9.718;2023-01-23T04:20:56;1.60;;;1.50;;
11131;SDS011;5620;53.570;9.718;2023-01-23T04:23:24;2.42;;;2.08;;
11131;SDS011;5620;53.570;9.718;2023-01-23T04:25:53;2.15;;;1.95;;
11131;SDS011;5620;53.570;9.718;2023-01-23T04:28:20;3.88;;;2.17;;
11131;SDS011;5620;53.570;9.718;2023-01-23T04:30:49;4.17;;;2.50;;
11131;SDS011;5620;53.570;9.718;2023-01-23T04:33:18;1.58;;;1.48;;
11131;SDS011;5620;53.570;9.718;2023-01-23T04:35:49;2.70;;;2.50;;
11131;SDS011;5620;53.570;9.718;2023-01-23T04:38:18;1.98;;;1.88;;
11131;SDS011;5620;53.570;9.718;2023-01-23T04:40:45;1.98;;;1.88;;
11131;SDS011;5620;53.570;9.718;2023-01-23T04:43:15;1.77;;;1.67;;
11131;SDS011;5620;53.570;9.718;2023-01-23T04:45:43;1.83;;;1.38;;
11131;SDS011;5620;53.570;9.718;2023-01-23T04:48:10;2.20;;;2.10;;
11131;SDS011;5620;53.570;9.718;2023-01-23T04:50:42;1.55;;;1.45;;
11131;SDS011;5620;53.570;9.718;2023-01-23T04:53:08;2.17;;;2.08;;
11131;SDS011;5620;53.570;9.718;2023-01-23T04:55:36;1.73;;;1.63;;
11131;SDS011;5620;53.570;9.718;2023-01-23T04:58:05;1.40;;;1.20;;
11131;SDS011;5620;53.570;9.718;2023-01-23T05:00:33;2.53;;;2.17;;
11131;SDS011;5620;53.570;9.718;2023-01-23T05:03:01;2.50;;;1.50;;
11131;SDS011;5620;53.570;9.718;2023-01-23T05:05:27;5.07;;;4.25;;
11131;SDS011;5620;53.570;9.718;2023-01-23T05:07:56;8.67;;;4.43;;
11131;SDS011;5620;53.570;9.718;2023-01-23T05:10:23;2.47;;;2.10;;
11131;SDS011;5620;53.570;9.718;2023-01-23T05:12:49;2.83;;;1.67;;
11131;SDS011;5620;53.570;9.718;2023-01-23T05:15:14;2.00;;;1.90;;
11131;SDS011;5620;53.570;9.718;2023-01-23T05:17:40;1.60;;;1.40;;
11131;SDS011;5620;53.570;9.718;2023-01-23T05:20:08;2.23;;;2.03;;
11131;SDS011;5620;53.570;9.718;2023-01-23T05:22:36;2.00;;;1.90;;
11131;SDS011;5620;53.570;9.718;2023-01-23T05:25:04;2.20;;;1.92;;
11131;SDS011;5620;53.570;9.718;2023-01-23T05:27:32;1.85;;;1.75;;
11131;SDS011;5620;53.570;9.718;2023-01-23T05:29:59;2.00;;;1.90;;
11131;SDS011;5620;53.570;9.718;2023-01-23T05:32:26;1.47;;;1.37;;
11131;SDS011;5620;53.570;9.718;2023-01-23T05:34:51;1.50;;;1.40;;
11131;SDS011;5620;53.570;9.718;2023-01-23T05:37:19;3.70;;;1.83;;
11131;SDS011;5620;53.570;9.718;2023-01-23T05:39:45;1.40;;;1.30;;
11131;SDS011;5620;53.570;9.718;2023-01-23T05:42:12;3.05;;;2.13;;
11131;SDS011;5620;53.570;9.718;2023-01-23T05:44:39;3.22;;;2.63;;
11131;SDS011;5620;53.570;9.718;2023-01-23T05:47:06;3.38;;;1.50;;
11131;SDS011;5620;53.570;9.718;2023-01-23T05:49:33;2.27;;;2.17;;
11131;SDS011;5620;53.570;9.718;2023-01-23T05:52:02;2.38;;;2.17;;
11131;SDS011;5620;53.570;9.718;2023-01-23T05:54:30;1.80;;;1.70;;
11131;SDS011;5620;53.570;9.718;2023-01-23T05:56:56;2.53;;;2.33;;
11131;SDS011;5620;53.570;9.718;2023-01-23T05:59:23;2.20;;;2.10;;
11131;SDS011;5620;53.570;9.718;2023-01-23T06:01:50;2.80;;;2.60;;
11131;SDS011;5620;53.570;9.718;2023-01-23T06:04:17;3.83;;;2.05;;
11131;SDS011;5620;53.570;9.718;2023-01-23T06:06:45;2.88;;;2.30;;
11131;SDS011;5620;53.570;9.718;2023-01-23T06:09:12;5.07;;;1.80;;
11131;SDS011;5620;53.570;9.718;2023-01-23T06:11:37;5.50;;;5.00;;
11131;SDS011;5620;53.570;9.718;2023-01-23T06:14:06;2.53;;;2.20;;
11131;SDS011;5620;53.570;9.718;2023-01-23T06:16:33;2.20;;;1.98;;
11131;SDS011;5620;53.570;9.718;2023-01-23T06:19:00;4.50;;;2.60;;
11131;SDS011;5620;53.570;9.718;2023-01-23T06:21:25;2.97;;;2.47;;
11131;SDS011;5620;53.570;9.718;2023-01-23T06:23:52;6.73;;;3.37;;
11131;SDS011;5620;53.570;9.718;2023-01-23T06:26:19;2.97;;;2.67;;
11131;SDS011;5620;53.570;9.718;2023-01-23T06:28:47;2.67;;;2.47;;
11131;SDS011;5620;53.570;9.718;2023-01-23T06:31:14;3.20;;;2.97;;
11131;SDS011;5620;53.570;9.718;2023-01-23T06:33:42;3.20;;;2.90;;
11131;SDS011;5620;53.570;9.718;2023-01-23T06:36:07;5.35;;;3.00;;
11131;SDS011;5620;53.570;9.718;2023-01-23T06:38:33;3.70;;;3.22;;
11131;SDS011;5620;53.570;9.718;2023-01-23T06:41:02;12.02;;;8.35;;
11131;SDS011;5620;53.570;9.718;2023-01-23T06:43:29;7.10;;;4.70;;
11131;SDS011;5620;53.570;9.718;2023-01-23T06:45:57;5.30;;;3.90;;
11131;SDS011;5620;53.570;9.718;2023-01-23T06:48:25;3.67;;;2.95;;
11131;SDS011;5620;53.570;9.718;2023-01-23T06:50:53;3.63;;;2.70;;
11131;SDS011;5620;53.570;9.718;2023-01-23T06:53:18;4.28;;;3.92;;
11131;SDS011;5620;53.570;9.718;2023-01-23T06:55:45;3.47;;;3.17;;
11131;SDS011;5620;53.570;9.718;2023-01-23T06:58:12;5.07;;;3.08;;
11131;SDS011;5620;53.570;9.718;2023-01-23T07:00:40;3.15;;;2.92;;
11131;SDS011;5620;53.570;9.718;2023-01-23T07:03:09;9.10;;;7.47;;
11131;SDS011;5620;53.570;9.718;2023-01-23T07:05:38;4.50;;;4.10;;
11131;SDS011;5620;53.570;9.718;2023-01-23T07:08:06;4.35;;;3.95;;
11131;SDS011;5620;53.570;9.718;2023-01-23T07:10:34;5.78;;;3.55;;
11131;SDS011;5620;53.570;9.718;2023-01-23T07:13:02;4.65;;;3.20;;
11131;SDS011;5620;53.570;9.718;2023-01-23T07:15:30;3.33;;;3.03;;
11131;SDS011;5620;53.570;9.718;2023-01-23T07:17:58;3.70;;;3.50;;
11131;SDS011;5620;53.570;9.718;2023-01-23T07:20:26;3.38;;;3.17;;
11131;SDS011;5620;53.570;9.718;2023-01-23T07:22:54;3.97;;;3.28;;
11131;SDS011;5620;53.570;9.718;2023-01-23T07:25:22;5.18;;;4.68;;
11131;SDS011;5620;53.570;9.718;2023-01-23T07:27:49;3.50;;;3.30;;
11131;SDS011;5620;53.570;9.718;2023-01-23T07:30:16;3.87;;;3.50;;
11131;SDS011;5620;53.570;9.718;2023-01-23T07:32:43;4.28;;;3.83;;
11131;SDS011;5620;53.570;9.718;2023-01-23T07:35:10;5.68;;;5.05;;
11131;SDS011;5620;53.570;9.718;2023-01-23T07:37:37;4.95;;;3.92;;
11131;SDS011;5620;53.570;9.718;2023-01-23T07:40:06;3.88;;;3.58;;
11131;SDS011;5620;53.570;9.718;2023-01-23T07:42:35;5.20;;;3.30;;
11131;SDS011;5620;53.570;9.718;2023-01-23T07:45:03;3.88;;;3.58;;
11131;SDS011;5620;53.570;9.718;2023-01-23T07:47:35;10.38;;;4.20;;
11131;SDS011;5620;53.570;9.718;2023-01-23T07:50:01;5.95;;;4.05;;
11131;SDS011;5620;53.570;9.718;2023-01-23T07:52:28;4.20;;;3.90;;
11131;SDS011;5620;53.570;9.718;2023-01-23T07:54:55;4.63;;;4.13;;
11131;SDS011;5620;53.570;9.718;2023-01-23T07:57:23;4.50;;;4.10;;
11131;SDS011;5620;53.570;9.718;2023-01-23T07:59:49;5.20;;;4.07;;
11131;SDS011;5620;53.570;9.718;2023-01-23T08:02:15;5.03;;;4.57;;
11131;SDS011;5620;53.570;9.718;2023-01-23T08:04:42;4.57;;;3.47;;
11131;SDS011;5620;53.570;9.718;2023-01-23T08:07:10;5.22;;;3.63;;
11131;SDS011;5620;53.570;9.718;2023-01-23T08:09:38;4.38;;;3.97;;
11131;SDS011;5620;53.570;9.718;2023-01-23T08:12:05;4.05;;;3.42;;
11131;SDS011;5620;53.570;9.718;2023-01-23T08:14:30;5.20;;;3.95;;
11131;SDS011;5620;53.570;9.718;2023-01-23T08:16:59;3.77;;;3.47;;
11131;SDS011;5620;53.570;9.718;2023-01-23T08:19:25;4.20;;;3.80;;
11131;SDS011;5620;53.570;9.718;2023-01-23T08:21:53;4.00;;;3.60;;
11131;SDS011;5620;53.570;9.718;2023-01-23T08:24:19;5.93;;;4.15;;
11131;SDS011;5620;53.570;9.718;2023-01-23T08:26:45;4.38;;;3.97;;
11131;SDS011;5620;53.570;9.718;2023-01-23T08:29:11;30.53;;;3.43;;
11131;SDS011;5620;53.570;9.718;2023-01-23T08:31:38;14.55;;;3.97;;
11131;SDS011;5620;53.570;9.718;2023-01-23T08:34:05;4.97;;;4.50;;
11131;SDS011;5620;53.570;9.718;2023-01-23T08:36:33;7.88;;;3.70;;
11131;SDS011;5620;53.570;9.718;2023-01-23T08:39:00;5.50;;;4.50;;
11131;SDS011;5620;53.570;9.718;2023-01-23T08:41:28;6.03;;;4.30;;
11131;SDS011;5620;53.570;9.718;2023-01-23T08:43:55;18.33;;;4.63;;
11131;SDS011;5620;53.570;9.718;2023-01-23T08:46:22;9.82;;;3.97;;
11131;SDS011;5620;53.570;9.718;2023-01-23T08:48:49;5.00;;;3.58;;
11131;SDS011;5620;53.570;9.718;2023-01-23T08:51:15;5.82;;;4.20;;
11131;SDS011;5620;53.570;9.718;2023-01-23T08:53:42;4.23;;;3.47;;
11131;SDS011;5620;53.570;9.718;2023-01-23T08:56:13;5.07;;;4.15;;
11131;SDS011;5620;53.570;9.718;2023-01-23T08:58:44;9.15;;;3.63;;
11131;SDS011;5620;53.570;9.718;2023-01-23T09:01:14;4.10;;;3.80;;
11131;SDS011;5620;53.570;9.718;2023-01-23T09:03:41;4.35;;;3.97;;
11131;SDS011;5620;53.570;9.718;2023-01-23T09:06:19;4.20;;;3.88;;
11131;SDS011;5620;53.570;9.718;2023-01-23T09:08:47;6.65;;;4.38;;
11131;SDS011;5620;53.570;9.718;2023-01-23T09:11:14;7.07;;;4.00;;
11131;SDS011;5620;53.570;9.718;2023-01-23T09:13:42;9.35;;;5.97;;
11131;SDS011;5620;53.570;9.718;2023-01-23T09:16:10;6.45;;;4.82;;
11131;SDS011;5620;53.570;9.718;2023-01-23T09:18:38;9.30;;;5.00;;
11131;SDS011;5620;53.570;9.718;2023-01-23T09:21:06;8.68;;;3.75;;
11131;SDS011;5620;53.570;9.718;2023-01-23T09:23:36;4.20;;;3.80;;
11131;SDS011;5620;53.570;9.718;2023-01-23T09:26:05;5.47;;;5.07;;
11131;SDS011;5620;53.570;9.718;2023-01-23T09:28:38;4.88;;;4.47;;
11131;SDS011;5620;53.570;9.718;2023-01-23T09:31:07;4.95;;;4.45;;
11131;SDS011;5620;53.570;9.718;2023-01-23T09:33:35;5.20;;;4.25;;
11131;SDS011;5620;53.570;9.718;2023-01-23T09:36:04;7.22;;;4.18;;
11131;SDS011;5620;53.570;9.718;2023-01-23T09:38:34;9.38;;;4.07;;
11131;SDS011;5620;53.570;9.718;2023-01-23T09:41:24;4.45;;;4.10;;
11131;SDS011;5620;53.570;9.718;2023-01-23T09:52:37;5.45;;;4.95;;
11131;SDS011;5620;53.570;9.718;2023-01-23T09:57:59;8.93;;;7.30;;
11131;SDS011;5620;53.570;9.718;2023-01-23T10:00:32;7.13;;;6.30;;
11131;SDS011;5620;53.570;9.718;2023-01-23T10:03:00;10.60;;;5.28;;
11131;SDS011;5620;53.570;9.718;2023-01-23T10:11:16;5.05;;;4.65;;
11131;SDS011;5620;53.570;9.718;2023-01-23T10:25:44;7.20;;;5.28;;
11131;SDS011;5620;53.570;9.718;2023-01-23T10:28:17;6.32;;;4.18;;
11131;SDS011;5620;53.570;9.718;2023-01-23T10:31:06;5.45;;;4.20;;
11131;SDS011;5620;53.570;9.718;2023-01-23T10:42:41;6.65;;;4.22;;
11131;SDS011;5620;53.570;9.718;2023-01-23T10:45:12;13.70;;;5.18;;
11131;SDS011;5620;53.570;9.718;2023-01-23T10:47:48;5.50;;;4.00;;
11131;SDS011;5620;53.570;9.718;2023-01-23T10:50:13;16.30;;;4.85;;
11131;SDS011;5620;53.570;9.718;2023-01-23T10:53:17;5.43;;;4.53;;
11131;SDS011;5620;53.570;9.718;2023-01-23T10:55:46;5.15;;;4.68;;
11131;SDS011;5620;53.570;9.718;2023-01-23T10:58:47;10.30;;;4.85;;
11131;SDS011;5620;53.570;9.718;2023-01-23T11:04:18;5.32;;;4.47;;
11131;SDS011;5620;53.570;9.718;2023-01-23T11:07:31;6.22;;;4.90;;
11131;SDS011;5620;53.570;9.718;2023-01-23T11:09:49;5.85;;;4.90;;
11131;SDS011;5620;53.570;9.718;2023-01-23T11:18:03;6.53;;;5.03;;
11131;SDS011;5620;53.570;9.718;2023-01-23T11:20:55;7.20;;;4.53;;
11131;SDS011;5620;53.570;9.718;2023-01-23T11:23:21;8.00;;;4.57;;
11131;SDS011;5620;53.570;9.718;2023-01-23T11:25:49;7.03;;;4.18;;
11131;SDS011;5620;53.570;9.718;2023-01-23T11:28:28;7.15;;;5.32;;
11131;SDS011;5620;53.570;9.718;2023-01-23T11:30:58;5.63;;;4.50;;
11131;SDS011;5620;53.570;9.718;2023-01-23T11:36:40;4.97;;;4.57;;
11131;SDS011;5620;53.570;9.718;2023-01-23T11:42:03;6.22;;;4.72;;
11131;SDS011;5620;53.570;9.718;2023-01-23T11:44:38;9.35;;;5.20;;
11131;SDS011;5620;53.570;9.718;2023-01-23T11:47:24;6.93;;;4.93;;
11131;SDS011;5620;53.570;9.718;2023-01-23T11:50:41;6.07;;;4.93;;
11131;SDS011;5620;53.570;9.718;2023-01-23T11:53:24;8.70;;;5.57;;
11131;SDS011;5620;53.570;9.718;2023-01-23T11:59:10;7.18;;;4.63;;
11131;SDS011;5620;53.570;9.718;2023-01-23T12:02:19;9.48;;;4.90;;
11131;SDS011;5620;53.570;9.718;2023-01-23T12:08:11;6.85;;;4.95;;
11131;SDS011;5620;53.570;9.718;2023-01-23T12:11:08;6.53;;;5.18;;
11131;SDS011;5620;53.570;9.718;2023-01-23T12:37:38;8.07;;;4.80;;
11131;SDS011;5620;53.570;9.718;2023-01-23T12:40:17;6.32;;;5.00;;
11131;SDS011;5620;53.570;9.718;2023-01-23T12:43:20;5.38;;;4.45;;
11131;SDS011;5620;53.570;9.718;2023-01-23T12:46:44;7.50;;;5.68;;
11131;SDS011;5620;53.570;9.718;2023-01-23T12:49:37;8.93;;;4.83;;
11131;SDS011;5620;53.570;9.718;2023-01-23T12:52:22;7.15;;;5.05;;
11131;SDS011;5620;53.570;9.718;2023-01-23T12:57:50;10.02;;;5.13;;
11131;SDS011;5620;53.570;9.718;2023-01-23T13:17:35;7.83;;;5.40;;
11131;SDS011;5620;53.570;9.718;2023-01-23T13:22:48;9.88;;;5.55;;
11131;SDS011;5620;53.570;9.718;2023-01-23T13:25:19;9.95;;;4.97;;
11131;SDS011;5620;53.570;9.718;2023-01-23T13:27:55;6.93;;;4.63;;
11131;SDS011;5620;53.570;9.718;2023-01-23T13:32:54;14.40;;;5.72;;
11131;SDS011;5620;53.570;9.718;2023-01-23T13:52:24;7.80;;;5.88;;
11131;SDS011;5620;53.570;9.718;2023-01-23T13:54:54;7.90;;;5.38;;
11131;SDS011;5620;53.570;9.718;2023-01-23T13:57:22;8.00;;;4.50;;
11131;SDS011;5620;53.570;9.718;2023-01-23T13:59:50;10.35;;;5.15;;
11131;SDS011;5620;53.570;9.718;2023-01-23T14:05:15;6.00;;;4.68;;
11131;SDS011;5620;53.570;9.718;2023-01-23T14:07:50;7.95;;;5.40;;
11131;SDS011;5620;53.570;9.718;2023-01-23T14:10:27;10.07;;;5.50;;
11131;SDS011;5620;53.570;9.718;2023-01-23T14:15:50;6.30;;;5.38;;
11131;SDS011;5620;53.570;9.718;2023-01-23T14:21:17;9.35;;;4.90;;
11131;SDS011;5620;53.570;9.718;2023-01-23T14:23:56;8.30;;;5.53;;
11131;SDS011;5620;53.570;9.718;2023-01-23T14:26:25;6.50;;;5.28;;
11131;SDS011;5620;53.570;9.718;2023-01-23T14:28:55;9.52;;;6.03;;
11131;SDS011;5620;53.570;9.718;2023-01-23T14:31:26;12.73;;;4.63;;
11131;SDS011;5620;53.570;9.718;2023-01-23T14:34:00;7.13;;;5.22;;
11131;SDS011;5620;53.570;9.718;2023-01-23T14:36:26;10.80;;;5.47;;
11131;SDS011;5620;53.570;9.718;2023-01-23T14:38:54;11.30;;;5.13;;
11131;SDS011;5620;53.570;9.718;2023-01-23T14:41:22;11.20;;;5.38;;
11131;SDS011;5620;53.570;9.718;2023-01-23T14:43:52;11.52;;;5.47;;
11131;SDS011;5620;53.570;9.718;2023-01-23T14:49:12;7.97;;;4.73;;
11131;SDS011;5620;53.570;9.718;2023-01-23T14:51:54;6.53;;;4.63;;
11131;SDS011;5620;53.570;9.718;2023-01-23T14:54:24;8.38;;;5.90;;
11131;SDS011;5620;53.570;9.718;2023-01-23T14:56:53;9.63;;;5.40;;
11131;SDS011;5620;53.570;9.718;2023-01-23T14:59:35;9.40;;;5.43;;
11131;SDS011;5620;53.570;9.718;2023-01-23T15:05:15;7.38;;;5.05;;
11131;SDS011;5620;53.570;9.718;2023-01-23T15:10:47;14.80;;;5.68;;
11131;SDS011;5620;53.570;9.718;2023-01-23T15:13:21;10.57;;;5.90;;
11131;SDS011;5620;53.570;9.718;2023-01-23T15:15:56;12.63;;;5.40;;
11131;SDS011;5620;53.570;9.718;2023-01-23T15:18:30;8.40;;;4.53;;
11131;SDS011;5620;53.570;9.718;2023-01-23T15:24:02;7.28;;;4.72;;
11131;SDS011;5620;53.570;9.718;2023-01-23T15:27:04;7.30;;;5.35;;
11131;SDS011;5620;53.570;9.718;2023-01-23T15:29:46;4.73;;;3.97;;
11131;SDS011;5620;53.570;9.718;2023-01-23T15:32:15;8.63;;;4.68;;
11131;SDS011;5620;53.570;9.718;2023-01-23T15:35:13;9.50;;;5.40;;
11131;SDS011;5620;53.570;9.718;2023-01-23T15:37:44;10.90;;;6.63;;
11131;SDS011;5620;53.570;9.718;2023-01-23T15:40:26;8.98;;;6.65;;
11131;SDS011;5620;53.570;9.718;2023-01-23T15:45:51;11.93;;;5.38;;
11131;SDS011;5620;53.570;9.718;2023-01-23T15:48:20;8.45;;;4.88;;
11131;SDS011;5620;53.570;9.718;2023-01-23T15:50:48;6.72;;;5.05;;
11131;SDS011;5620;53.570;9.718;2023-01-23T15:53:15;8.60;;;5.38;;
11131;SDS011;5620;53.570;9.718;2023-01-23T15:55:41;4.87;;;4.40;;
11131;SDS011;5620;53.570;9.718;2023-01-23T15:58:11;4.88;;;4.32;;
11131;SDS011;5620;53.570;9.718;2023-01-23T16:00:38;14.20;;;4.82;;
11131;SDS011;5620;53.570;9.718;2023-01-23T16:03:05;7.85;;;5.05;;
11131;SDS011;5620;53.570;9.718;2023-01-23T16:05:35;6.97;;;5.50;;
11131;SDS011;5620;53.570;9.718;2023-01-23T16:08:04;6.68;;;5.18;;
11131;SDS011;5620;53.570;9.718;2023-01-23T16:10:39;6.43;;;5.47;;
11131;SDS011;5620;53.570;9.718;2023-01-23T16:13:12;8.37;;;5.40;;
11131;SDS011;5620;53.570;9.718;2023-01-23T16:15:41;6.93;;;4.80;;
11131;SDS011;5620;53.570;9.718;2023-01-23T16:18:08;6.88;;;5.03;;
11131;SDS011;5620;53.570;9.718;2023-01-23T16:20:35;6.05;;;5.50;;
11131;SDS011;5620;53.570;9.718;2023-01-23T16:25:54;7.67;;;5.63;;
11131;SDS011;5620;53.570;9.718;2023-01-23T16:28:23;6.63;;;5.20;;
11131;SDS011;5620;53.570;9.718;2023-01-23T16:30:50;10.13;;;5.45;;
11131;SDS011;5620;53.570;9.718;2023-01-23T16:33:19;6.70;;;5.07;;
11131;SDS011;5620;53.570;9.718;2023-01-23T16:35:47;7.25;;;5.35;;
11131;SDS011;5620;53.570;9.718;2023-01-23T16:38:19;5.72;;;5.22;;
11131;SDS011;5620;53.570;9.718;2023-01-23T16:40:51;11.82;;;5.50;;
11131;SDS011;5620;53.570;9.718;2023-01-23T16:43:18;5.22;;;4.75;;
11131;SDS011;5620;53.570;9.718;2023-01-23T16:45:53;9.32;;;6.22;;
11131;SDS011;5620;53.570;9.718;2023-01-23T16:48:20;7.38;;;5.90;;
11131;SDS011;5620;53.570;9.718;2023-01-23T16:50:49;8.07;;;5.70;;
11131;SDS011;5620;53.570;9.718;2023-01-23T16:53:24;7.35;;;5.78;;
11131;SDS011;5620;53.570;9.718;2023-01-23T16:56:00;6.20;;;5.30;;
11131;SDS011;5620;53.570;9.718;2023-01-23T16:58:33;10.32;;;6.32;;
11131;SDS011;5620;53.570;9.718;2023-01-23T17:01:11;7.15;;;5.40;;
11131;SDS011;5620;53.570;9.718;2023-01-23T17:03:59;7.22;;;5.95;;
11131;SDS011;5620;53.570;9.718;2023-01-23T17:06:29;8.65;;;6.32;;
11131;SDS011;5620;53.570;9.718;2023-01-23T17:08:57;8.57;;;5.50;;
11131;SDS011;5620;53.570;9.718;2023-01-23T17:11:33;6.60;;;5.32;;
11131;SDS011;5620;53.570;9.718;2023-01-23T17:14:07;8.05;;;6.10;;
11131;SDS011;5620;53.570;9.718;2023-01-23T17:16:56;11.20;;;6.07;;
11131;SDS011;5620;53.570;9.718;2023-01-23T17:22:19;5.93;;;5.35;;
11131;SDS011;5620;53.570;9.718;2023-01-23T17:24:52;11.70;;;6.63;;
11131;SDS011;5620;53.570;9.718;2023-01-23T17:27:20;6.45;;;5.78;;
11131;SDS011;5620;53.570;9.718;2023-01-23T17:29:47;9.10;;;6.03;;
11131;SDS011;5620;53.570;9.718;2023-01-23T17:32:33;9.48;;;7.05;;
11131;SDS011;5620;53.570;9.718;2023-01-23T17:35:02;12.13;;;5.70;;
11131;SDS011;5620;53.570;9.718;2023-01-23T17:37:40;9.73;;;6.93;;
11131;SDS011;5620;53.570;9.718;2023-01-23T17:40:26;10.70;;;6.18;;
11131;SDS011;5620;53.570;9.718;2023-01-23T17:42:55;10.85;;;7.68;;
11131;SDS011;5620;53.570;9.718;2023-01-23T17:45:21;9.07;;;7.20;;
11131;SDS011;5620;53.570;9.718;2023-01-23T17:47:50;11.95;;;7.38;;
11131;SDS011;5620;53.570;9.718;2023-01-23T17:53:14;7.22;;;6.38;;
11131;SDS011;5620;53.570;9.718;2023-01-23T17:55:41;6.43;;;5.82;;
11131;SDS011;5620;53.570;9.718;2023-01-23T17:58:08;11.68;;;7.43;;
11131;SDS011;5620;53.570;9.718;2023-01-23T18:00:34;9.60;;;7.65;;
11131;SDS011;5620;53.570;9.718;2023-01-23T18:03:02;13.70;;;5.93;;
11131;SDS011;5620;53.570;9.718;2023-01-23T18:05:30;12.02;;;6.30;;
11131;SDS011;5620;53.570;9.718;2023-01-23T18:07:58;9.20;;;6.07;;
11131;SDS011;5620;53.570;9.718;2023-01-23T18:10:25;11.25;;;6.30;;
11131;SDS011;5620;53.570;9.718;2023-01-23T18:16:00;10.37;;;6.30;;
11131;SDS011;5620;53.570;9.718;2023-01-23T18:18:49;10.43;;;6.07;;